createdAt,value
2017-09-26T00:05:37.000Z,1014.24
2017-09-26T00:15:37.000Z,1014.195
2017-09-26T00:25:38.000Z,1014.312
2017-09-26T00:35:37.000Z,1014.283
2017-09-26T00:45:37.000Z,1014.261
2017-09-26T00:55:37.000Z,1014.311
2017-09-26T01:05:37.000Z,1014.324
2017-09-26T01:15:37.000Z,1014.364
2017-09-26T01:25:37.000Z,1014.36
2017-09-26T01:35:37.000Z,1014.33
2017-09-26T01:45:37.000Z,1014.355
2017-09-26T01:55:37.000Z,1014.364
2017-09-26T02:05:37.000Z,1014.432
2017-09-26T02:15:37.000Z,1014.415
2017-09-26T02:25:38.000Z,1014.425
2017-09-26T02:35:38.000Z,1014.416
2017-09-26T02:45:38.000Z,1014.405
2017-09-26T02:55:38.000Z,1014.449
2017-09-26T03:05:38.000Z,1014.458
2017-09-26T03:15:38.000Z,1014.538
2017-09-26T03:25:38.000Z,1014.579
2017-09-26T03:35:38.000Z,1014.611
2017-09-26T03:45:38.000Z,1014.623
2017-09-26T03:55:38.000Z,1014.652
2017-09-26T04:05:38.000Z,1014.622
2017-09-26T04:15:38.000Z,1014.614
2017-09-26T04:25:38.000Z,1014.617
2017-09-26T04:35:38.000Z,1014.606
2017-09-26T04:45:38.000Z,1014.618
2017-09-26T04:55:38.000Z,1014.66
2017-09-26T05:05:39.000Z,1014.695
2017-09-26T05:15:38.000Z,1014.811
2017-09-26T05:25:38.000Z,1014.861
2017-09-26T05:35:38.000Z,1014.85
2017-09-26T05:45:38.000Z,1014.955
2017-09-26T05:55:38.000Z,1014.992
2017-09-26T06:05:38.000Z,1015.024
2017-09-26T06:15:38.000Z,1014.998
2017-09-26T06:25:38.000Z,1015.083
2017-09-26T06:35:38.000Z,1015.224
2017-09-26T06:45:38.000Z,1015.291
2017-09-26T06:55:38.000Z,1015.396
2017-09-26T07:05:38.000Z,1015.468
2017-09-26T07:15:38.000Z,1015.531
2017-09-26T07:25:38.000Z,1015.51
2017-09-26T07:35:38.000Z,1015.553
2017-09-26T07:45:38.000Z,1015.624
2017-09-26T07:55:38.000Z,1015.582
2017-09-26T08:05:38.000Z,1015.598
2017-09-26T08:15:38.000Z,1015.615
2017-09-26T08:25:38.000Z,1015.694
2017-09-26T08:35:38.000Z,1015.748
2017-09-26T08:45:38.000Z,1015.788
2017-09-26T08:55:38.000Z,1015.743
2017-09-26T09:05:38.000Z,1015.758
2017-09-26T09:15:38.000Z,1015.731
2017-09-26T09:25:42.000Z,1015.721
2017-09-26T09:35:38.000Z,1015.718
2017-09-26T09:45:38.000Z,1015.781
2017-09-26T09:55:39.000Z,1015.838
2017-09-26T10:05:39.000Z,1015.814
2017-09-26T10:15:39.000Z,1015.747
2017-09-26T10:25:39.000Z,1015.755
2017-09-26T10:35:39.000Z,1015.773
2017-09-26T10:45:39.000Z,1015.777
2017-09-26T10:55:39.000Z,1015.783
2017-09-26T11:05:39.000Z,1015.778
2017-09-26T11:15:39.000Z,1015.77
2017-09-26T11:25:39.000Z,1015.747
2017-09-26T11:35:39.000Z,1015.755
2017-09-26T11:45:39.000Z,1015.766
2017-09-26T11:55:43.000Z,1015.758
2017-09-26T12:05:39.000Z,1015.691
2017-09-26T12:15:39.000Z,1015.64
2017-09-26T12:25:39.000Z,1015.621
2017-09-26T12:35:39.000Z,1015.587
2017-09-26T12:45:39.000Z,1015.561
2017-09-26T12:55:39.000Z,1015.461
2017-09-26T13:05:39.000Z,1015.412
2017-09-26T13:15:39.000Z,1015.331
2017-09-26T13:25:39.000Z,1015.331
2017-09-26T13:35:39.000Z,1015.198
2017-09-26T13:45:39.000Z,1015.2
2017-09-26T13:55:39.000Z,1015.166
2017-09-26T14:05:39.000Z,1015.148
2017-09-26T14:25:40.000Z,1015.06
2017-09-26T14:35:39.000Z,1015.041
2017-09-26T14:45:40.000Z,1015
2017-09-26T14:55:39.000Z,1015.082
2017-09-26T15:05:39.000Z,1015.207
2017-09-26T15:15:39.000Z,1015.282
2017-09-26T15:25:39.000Z,1015.363
2017-09-26T15:35:39.000Z,1015.41
2017-09-26T15:45:39.000Z,1015.399
2017-09-26T15:55:39.000Z,1015.361
2017-09-26T16:05:39.000Z,1015.381
2017-09-26T16:15:39.000Z,1015.479
2017-09-26T16:25:39.000Z,1015.549
2017-09-26T16:35:39.000Z,1015.648
2017-09-26T16:45:39.000Z,1015.745
2017-09-26T16:55:39.000Z,1015.808
2017-09-26T17:05:40.000Z,1015.905
2017-09-26T17:15:39.000Z,1016.052
2017-09-26T17:25:39.000Z,1016.169
2017-09-26T17:35:40.000Z,1016.225
2017-09-26T17:45:39.000Z,1016.225
2017-09-26T17:55:40.000Z,1016.273
2017-09-26T18:05:40.000Z,1016.411
2017-09-26T18:15:40.000Z,1016.412
2017-09-26T18:25:40.000Z,1016.43
2017-09-26T18:35:40.000Z,1016.442
2017-09-26T18:45:40.000Z,1016.497
2017-09-26T18:55:40.000Z,1016.649
2017-09-26T19:05:40.000Z,1016.612
2017-09-26T19:15:40.000Z,1016.629
2017-09-26T19:25:40.000Z,1016.695
2017-09-26T19:35:40.000Z,1016.656
2017-09-26T19:45:40.000Z,1016.668
2017-09-26T19:55:40.000Z,1016.602
2017-09-26T20:05:40.000Z,1016.544
2017-09-26T20:15:40.000Z,1016.528
2017-09-26T20:25:40.000Z,1016.495
2017-09-26T20:35:40.000Z,1016.529
2017-09-26T20:45:40.000Z,1016.608
2017-09-26T20:55:40.000Z,1016.554
2017-09-26T21:05:40.000Z,1016.514
2017-09-26T21:15:40.000Z,1016.536
2017-09-26T21:25:40.000Z,1016.527
2017-09-26T21:35:40.000Z,1016.589
2017-09-26T21:45:40.000Z,1016.598
2017-09-26T21:55:40.000Z,1016.602
2017-09-26T22:05:40.000Z,1016.61
2017-09-26T22:15:40.000Z,1016.652
2017-09-26T22:25:40.000Z,1016.656
2017-09-26T22:35:40.000Z,1016.619
2017-09-26T22:45:40.000Z,1016.605
2017-09-26T22:55:40.000Z,1016.638
2017-09-26T23:05:40.000Z,1016.579
2017-09-26T23:15:40.000Z,1016.531
2017-09-26T23:25:40.000Z,1016.518
2017-09-26T23:35:40.000Z,1016.526
2017-09-26T23:45:40.000Z,1016.5
2017-09-26T23:55:40.000Z,1016.505
